createdAt,value
2023-03-11T00:00:41.441Z,99.99
2023-03-11T00:01:41.462Z,99.99
2023-03-11T00:02:41.404Z,99.99
2023-03-11T00:03:41.402Z,99.99
2023-03-11T00:04:41.393Z,99.99
2023-03-11T00:05:41.501Z,99.99
2023-03-11T00:06:41.368Z,99.99
2023-03-11T00:07:41.353Z,99.99
2023-03-11T00:08:41.363Z,99.99
2023-03-11T00:09:41.347Z,99.99
2023-03-11T00:10:41.342Z,99.99
2023-03-11T00:11:41.320Z,99.99
2023-03-11T00:12:41.309Z,99.99
2023-03-11T00:13:41.311Z,99.99
2023-03-11T00:14:41.301Z,99.99
2023-03-11T00:15:41.288Z,99.99
2023-03-11T00:16:41.340Z,99.99
2023-03-11T00:17:41.261Z,99.99
2023-03-11T00:18:41.253Z,99.99
2023-03-11T00:19:41.239Z,99.99
2023-03-11T00:20:41.246Z,99.99
2023-03-11T00:21:41.218Z,99.99
2023-03-11T00:22:41.211Z,99.99
2023-03-11T00:23:41.201Z,99.99
2023-03-11T00:24:41.193Z,99.99
2023-03-11T00:25:41.201Z,99.99
2023-03-11T00:26:41.174Z,99.99
2023-03-11T00:27:41.156Z,99.99
2023-03-11T00:28:41.179Z,99.99
2023-03-11T00:29:41.137Z,99.99
2023-03-11T00:30:41.186Z,99.99
2023-03-11T00:31:41.118Z,99.99
2023-03-11T00:32:41.171Z,99.99
2023-03-11T00:33:41.108Z,99.99
2023-03-11T00:34:41.096Z,99.99
2023-03-11T00:35:41.205Z,99.99
2023-03-11T00:36:41.077Z,99.99
2023-03-11T00:37:41.062Z,99.99
2023-03-11T00:38:41.135Z,99.99
2023-03-11T00:39:41.042Z,99.99
2023-03-11T00:40:41.057Z,99.99
2023-03-11T00:41:41.030Z,99.99
2023-03-11T00:42:41.014Z,99.99
2023-03-11T00:43:41.003Z,99.99
2023-03-11T00:44:41.004Z,99.99
2023-03-11T00:45:41.008Z,99.99
2023-03-11T00:46:40.982Z,99.99
2023-03-11T00:47:40.964Z,99.99
2023-03-11T00:48:40.959Z,99.99
2023-03-11T00:49:40.942Z,99.99
2023-03-11T00:50:40.953Z,99.99
2023-03-11T00:51:40.925Z,99.99
2023-03-11T00:52:40.920Z,99.99
2023-03-11T00:53:40.908Z,99.99
2023-03-11T00:54:40.900Z,99.99
2023-03-11T00:55:40.908Z,99.99
2023-03-11T00:56:40.888Z,99.99
2023-03-11T00:57:40.864Z,99.99
2023-03-11T00:58:40.862Z,99.99
2023-03-11T00:59:40.849Z,99.99
2023-03-11T01:00:40.862Z,99.99
2023-03-11T01:01:40.892Z,99.99
2023-03-11T01:02:40.817Z,99.99
2023-03-11T01:03:40.807Z,99.99
2023-03-11T01:04:40.885Z,99.99
2023-03-11T01:05:40.809Z,99.99
2023-03-11T01:06:45.610Z,99.99
2023-03-11T01:07:40.775Z,99.99
2023-03-11T01:08:40.773Z,99.99
2023-03-11T01:09:40.753Z,99.99
2023-03-11T01:10:40.747Z,99.99
2023-03-11T01:11:40.732Z,99.99
2023-03-11T01:12:40.721Z,99.99
2023-03-11T01:13:40.738Z,99.99
2023-03-11T01:14:40.700Z,99.99
2023-03-11T01:15:40.706Z,99.99
2023-03-11T01:16:40.684Z,99.99
2023-03-11T01:17:40.670Z,99.99
2023-03-11T01:18:40.662Z,99.99
2023-03-11T01:19:40.673Z,99.99
2023-03-11T01:20:40.651Z,99.99
2023-03-11T01:21:40.626Z,99.99
2023-03-11T01:22:40.618Z,99.99
2023-03-11T01:23:40.607Z,99.99
2023-03-11T01:24:40.618Z,99.99
2023-03-11T01:25:40.611Z,99.99
2023-03-11T01:26:40.583Z,99.99
2023-03-11T01:27:40.566Z,99.99
2023-03-11T01:28:40.565Z,99.99
2023-03-11T01:29:40.558Z,99.99
2023-03-11T01:30:40.564Z,99.99
2023-03-11T01:31:40.526Z,99.99
2023-03-11T01:32:40.578Z,99.99
2023-03-11T01:33:40.510Z,99.99
2023-03-11T01:34:40.511Z,99.99
2023-03-11T01:35:40.557Z,99.99
2023-03-11T01:36:40.480Z,99.99
2023-03-11T01:37:40.469Z,99.99
2023-03-11T01:38:40.468Z,99.99
2023-03-11T01:39:40.454Z,99.99
2023-03-11T01:40:40.476Z,99.99
2023-03-11T01:41:40.431Z,99.99
2023-03-11T01:42:40.427Z,99.99
2023-03-11T01:43:40.413Z,99.99
2023-03-11T01:44:40.414Z,99.99
2023-03-11T01:45:40.397Z,99.99
2023-03-11T01:46:40.449Z,99.99
2023-03-11T01:47:40.374Z,99.99
2023-03-11T01:48:40.360Z,99.99
2023-03-11T01:49:40.366Z,99.99
2023-03-11T01:50:40.383Z,99.99
2023-03-11T01:51:40.326Z,99.99
2023-03-11T01:52:40.329Z,99.99
2023-03-11T01:53:40.307Z,99.99
2023-03-11T01:54:40.324Z,99.99
2023-03-11T01:55:40.322Z,99.99
2023-03-11T01:56:40.308Z,99.99
2023-03-11T01:57:40.270Z,99.99
2023-03-11T01:58:40.260Z,99.99
2023-03-11T01:59:40.248Z,99.99
2023-03-11T02:00:40.281Z,99.99
2023-03-11T02:01:40.336Z,99.99
2023-03-11T02:02:40.258Z,99.99
2023-03-11T02:03:40.211Z,99.99
2023-03-11T02:04:40.201Z,99.99
2023-03-11T02:05:40.226Z,99.99
2023-03-11T02:06:40.194Z,99.99
2023-03-11T02:07:40.168Z,99.99
2023-03-11T02:08:40.163Z,99.99
2023-03-11T02:09:40.159Z,99.99
2023-03-11T02:10:40.147Z,99.99
2023-03-11T02:11:40.145Z,99.99
2023-03-11T02:12:40.126Z,99.99
2023-03-11T02:13:40.119Z,99.99
2023-03-11T02:14:40.106Z,99.99
2023-03-11T02:15:40.294Z,99.99
2023-03-11T02:16:40.103Z,99.99
2023-03-11T02:17:40.073Z,99.99
2023-03-11T02:18:40.071Z,99.99
2023-03-11T02:19:40.066Z,99.99
2023-03-11T02:20:40.049Z,99.99
2023-03-11T02:21:40.073Z,99.99
2023-03-11T02:22:40.040Z,99.99
2023-03-11T02:23:40.036Z,99.99
2023-03-11T02:24:40.039Z,99.99
2023-03-11T02:25:39.998Z,99.99
2023-03-11T02:26:40.027Z,99.99
2023-03-11T02:27:39.979Z,99.99
2023-03-11T02:28:39.985Z,99.99
2023-03-11T02:29:39.961Z,99.99
2023-03-11T02:30:39.958Z,99.99
2023-03-11T02:31:42.546Z,99.99
2023-03-11T02:32:39.953Z,99.99
2023-03-11T02:33:39.925Z,99.99
2023-03-11T02:34:39.915Z,99.99
2023-03-11T02:35:39.927Z,99.99
2023-03-11T02:36:39.914Z,99.99
2023-03-11T02:37:39.885Z,99.99
2023-03-11T02:38:39.881Z,99.99
2023-03-11T02:39:39.863Z,99.99
2023-03-11T02:40:39.859Z,99.99
2023-03-11T02:41:39.867Z,99.99
2023-03-11T02:42:39.839Z,99.99
2023-03-11T02:43:39.824Z,99.99
2023-03-11T02:44:39.814Z,99.99
2023-03-11T02:45:39.806Z,99.99
2023-03-11T02:46:39.834Z,99.99
2023-03-11T02:47:39.781Z,99.99
2023-03-11T02:48:39.774Z,99.99
2023-03-11T02:49:39.752Z,99.99
2023-03-11T02:50:39.752Z,99.99
2023-03-11T02:51:39.772Z,99.99
2023-03-11T02:52:39.734Z,99.99
2023-03-11T02:53:39.717Z,99.99
2023-03-11T02:54:39.712Z,99.99
2023-03-11T02:55:39.699Z,99.99
2023-03-11T02:56:39.719Z,99.99
2023-03-11T02:57:39.680Z,99.99
2023-03-11T02:58:39.680Z,99.99
2023-03-11T02:59:39.668Z,99.99
2023-03-11T03:00:39.668Z,99.99
2023-03-11T03:01:39.657Z,99.99
2023-03-11T03:02:39.631Z,99.99
2023-03-11T03:03:39.615Z,99.99
2023-03-11T03:04:39.612Z,99.99
2023-03-11T03:05:39.598Z,99.99
2023-03-11T03:06:39.616Z,99.99
2023-03-11T03:07:39.672Z,99.99
2023-03-11T03:08:39.577Z,99.99
2023-03-11T03:09:39.568Z,99.99
2023-03-11T03:10:39.569Z,99.99
2023-03-11T03:11:39.543Z,99.99
2023-03-11T03:12:39.534Z,99.99
2023-03-11T03:13:39.526Z,99.99
2023-03-11T03:14:39.517Z,99.99
2023-03-11T03:15:39.514Z,99.99
2023-03-11T03:16:39.629Z,99.99
2023-03-11T03:17:39.574Z,99.99
2023-03-11T03:18:39.474Z,99.99
2023-03-11T03:19:39.469Z,99.99
2023-03-11T03:20:39.447Z,99.99
2023-03-11T03:21:39.497Z,99.99
2023-03-11T03:22:39.430Z,99.99
2023-03-11T03:23:39.424Z,99.99
2023-03-11T03:24:39.412Z,99.99
2023-03-11T03:25:39.419Z,99.99
2023-03-11T03:26:39.415Z,99.99
2023-03-11T03:27:39.393Z,99.99
2023-03-11T03:28:39.390Z,99.99
2023-03-11T03:29:39.371Z,99.99
2023-03-11T03:30:39.359Z,99.99
2023-03-11T03:31:39.417Z,99.99
2023-03-11T03:32:39.413Z,99.99
2023-03-11T03:33:39.329Z,99.99
2023-03-11T03:34:39.314Z,99.99
2023-03-11T03:35:39.326Z,99.99
2023-03-11T03:36:39.318Z,99.99
2023-03-11T03:37:39.293Z,99.99
2023-03-11T03:38:39.275Z,99.99
2023-03-11T03:39:39.272Z,99.99
2023-03-11T03:40:39.270Z,99.99
2023-03-11T03:41:39.282Z,99.99
2023-03-11T03:42:39.252Z,99.99
2023-03-11T03:43:39.234Z,99.99
2023-03-11T03:44:39.216Z,99.99
2023-03-11T03:45:39.260Z,99.99
2023-03-11T03:46:39.219Z,99.99
2023-03-11T03:47:39.196Z,99.99
2023-03-11T03:48:39.179Z,99.99
2023-03-11T03:49:39.177Z,99.99
2023-03-11T03:50:39.180Z,99.99
2023-03-11T03:51:39.171Z,99.99
2023-03-11T03:52:39.146Z,99.99
2023-03-11T03:53:39.139Z,99.99
2023-03-11T03:54:39.127Z,99.99
2023-03-11T03:55:39.119Z,99.99
2023-03-11T03:56:39.121Z,99.99
2023-03-11T03:57:39.101Z,99.99
2023-03-11T03:58:39.094Z,99.99
2023-03-11T03:59:39.083Z,99.99
2023-03-11T04:00:39.068Z,99.99
2023-03-11T04:01:39.096Z,99.99
2023-03-11T04:02:39.112Z,99.99
2023-03-11T04:03:39.164Z,99.99
2023-03-11T04:04:39.029Z,99.99
2023-03-11T04:05:39.036Z,99.99
2023-03-11T04:06:39.028Z,99.99
2023-03-11T04:07:39.011Z,99.99
2023-03-11T04:08:38.989Z,99.99
2023-03-11T04:09:38.998Z,99.99
2023-03-11T04:10:38.970Z,99.99
2023-03-11T04:11:38.984Z,99.99
2023-03-11T04:12:38.958Z,99.99
2023-03-11T04:13:38.953Z,99.99
2023-03-11T04:14:38.937Z,99.99
2023-03-11T04:15:38.932Z,99.99
2023-03-11T04:16:38.987Z,99.99
2023-03-11T04:17:38.912Z,99.99
2023-03-11T04:18:38.895Z,99.99
2023-03-11T04:19:38.895Z,99.99
2023-03-11T04:20:38.880Z,99.99
2023-03-11T04:21:38.897Z,99.99
2023-03-11T04:22:38.857Z,99.99
2023-03-11T04:23:38.855Z,99.99
2023-03-11T04:24:38.839Z,99.99
2023-03-11T04:25:38.834Z,99.99
2023-03-11T04:26:38.829Z,99.99
2023-03-11T04:27:38.806Z,99.99
2023-03-11T04:28:38.801Z,99.99
2023-03-11T04:29:38.795Z,99.99
2023-03-11T04:30:38.876Z,99.99
2023-03-11T04:31:38.781Z,99.99
2023-03-11T04:32:38.775Z,99.99
2023-03-11T04:33:38.749Z,99.99
2023-03-11T04:34:38.750Z,99.99
2023-03-11T04:35:38.771Z,99.99
2023-03-11T04:36:38.749Z,99.99
2023-03-11T04:37:38.706Z,99.99
2023-03-11T04:38:38.698Z,99.99
2023-03-11T04:39:38.694Z,99.99
2023-03-11T04:40:38.680Z,99.99
2023-03-11T04:41:38.690Z,99.99
2023-03-11T04:42:38.654Z,99.99
2023-03-11T04:43:38.659Z,99.99
2023-03-11T04:44:38.634Z,99.99
2023-03-11T04:45:38.628Z,99.99
2023-03-11T04:46:38.641Z,99.99
2023-03-11T04:47:38.621Z,99.99
2023-03-11T04:48:38.596Z,99.99
2023-03-11T04:49:38.595Z,99.99
2023-03-11T04:50:38.580Z,99.99
2023-03-11T04:51:38.574Z,99.99
2023-03-11T04:52:38.566Z,99.99
2023-03-11T04:53:38.550Z,99.99
2023-03-11T04:54:38.555Z,99.99
2023-03-11T04:55:38.537Z,99.99
2023-03-11T04:56:38.516Z,99.99
2023-03-11T04:57:38.534Z,99.99
2023-03-11T04:58:38.492Z,99.99
2023-03-11T04:59:38.493Z,99.99
2023-03-11T05:00:38.482Z,99.99
2023-03-11T05:01:38.592Z,99.99
2023-03-11T05:02:38.487Z,99.99
2023-03-11T05:03:38.452Z,99.99
2023-03-11T05:04:38.454Z,99.99
2023-03-11T05:05:38.438Z,99.99
2023-03-11T05:06:38.419Z,99.99
2023-03-11T05:07:38.444Z,99.99
2023-03-11T05:08:38.401Z,99.99
2023-03-11T05:09:38.401Z,99.99
2023-03-11T05:10:38.378Z,99.99
2023-03-11T05:11:38.378Z,99.99
2023-03-11T05:12:38.424Z,99.99
2023-03-11T05:13:38.352Z,99.99
2023-03-11T05:14:38.339Z,99.99
2023-03-11T05:15:38.396Z,99.99
2023-03-11T05:16:38.336Z,99.99
2023-03-11T05:17:38.332Z,99.99
2023-03-11T05:18:38.301Z,99.99
2023-03-11T05:19:38.296Z,99.99
2023-03-11T05:20:38.229Z,99.99
2023-03-11T05:21:38.232Z,99.99
2023-03-11T05:22:38.221Z,99.99
2023-03-11T05:23:38.212Z,99.99
2023-03-11T05:24:38.191Z,99.99
2023-03-11T05:25:38.196Z,99.99
2023-03-11T05:26:38.167Z,99.99
2023-03-11T05:27:38.203Z,99.99
2023-03-11T05:28:38.152Z,99.99
2023-03-11T05:29:38.151Z,99.99
2023-03-11T05:30:38.137Z,99.99
2023-03-11T05:31:38.162Z,99.99
2023-03-11T05:32:38.189Z,99.99
2023-03-11T05:33:38.112Z,99.99
2023-03-11T05:34:38.104Z,99.99
2023-03-11T05:35:38.185Z,99.99
2023-03-11T05:36:38.071Z,99.99
2023-03-11T05:37:38.085Z,99.99
2023-03-11T05:38:38.058Z,99.99
2023-03-11T05:39:38.050Z,99.99
2023-03-11T05:40:38.041Z,99.99
2023-03-11T05:41:38.038Z,99.99
2023-03-11T05:42:38.048Z,99.99
2023-03-11T05:43:38.041Z,99.99
2023-03-11T05:44:38.001Z,99.99
2023-03-11T05:45:38.002Z,99.99
2023-03-11T05:46:38.049Z,99.99
2023-03-11T05:47:37.997Z,99.99
2023-03-11T05:48:37.962Z,99.99
2023-03-11T05:49:37.963Z,99.99
2023-03-11T05:50:37.955Z,99.99
2023-03-11T05:51:37.940Z,99.99
2023-03-11T05:52:37.943Z,99.99
2023-03-11T05:53:37.928Z,99.99
2023-03-11T05:54:37.913Z,99.99
2023-03-11T05:55:37.900Z,99.99
2023-03-11T05:56:37.888Z,99.99
2023-03-11T05:57:37.891Z,99.99
2023-03-11T05:58:37.884Z,99.99
2023-03-11T05:59:37.915Z,99.99
2023-03-11T06:00:37.866Z,99.99
2023-03-11T06:01:37.842Z,99.99
2023-03-11T06:02:37.849Z,99.99
2023-03-11T06:03:37.862Z,99.99
2023-03-11T06:04:38.023Z,99.99
2023-03-11T06:05:37.808Z,99.99
2023-03-11T06:06:37.783Z,99.99
2023-03-11T06:07:37.803Z,99.99
2023-03-11T06:08:37.784Z,99.99
2023-03-11T06:09:37.764Z,99.99
2023-03-11T06:10:37.752Z,99.99
2023-03-11T06:11:37.744Z,99.99
2023-03-11T06:12:37.738Z,99.99
2023-03-11T06:13:37.724Z,99.99
2023-03-11T06:14:37.706Z,99.99
2023-03-11T06:15:37.720Z,99.99
2023-03-11T06:16:37.714Z,99.99
2023-03-11T06:17:37.706Z,99.99
2023-03-11T06:18:37.670Z,99.99
2023-03-11T06:19:37.665Z,99.99
2023-03-11T06:20:37.648Z,99.99
2023-03-11T06:21:37.648Z,99.99
2023-03-11T06:22:40.051Z,99.99
2023-03-11T06:23:37.631Z,99.99
2023-03-11T06:24:37.607Z,99.99
2023-03-11T06:25:37.606Z,99.99
2023-03-11T06:26:37.607Z,99.99
2023-03-11T06:27:37.662Z,99.99
2023-03-11T06:28:37.573Z,99.99
2023-03-11T06:29:37.567Z,99.99
2023-03-11T06:30:37.552Z,99.99
2023-03-11T06:31:37.712Z,99.99
2023-03-11T06:32:37.650Z,99.99
2023-03-11T06:33:37.524Z,99.99
2023-03-11T06:34:37.517Z,99.99
2023-03-11T06:35:37.582Z,99.99
2023-03-11T06:36:37.498Z,99.99
2023-03-11T06:37:37.531Z,99.99
2023-03-11T06:38:37.570Z,99.99
2023-03-11T06:39:37.468Z,99.99
2023-03-11T06:40:37.449Z,99.99
2023-03-11T06:41:37.461Z,99.99
2023-03-11T06:42:37.466Z,99.99
2023-03-11T06:43:37.434Z,99.99
2023-03-11T06:44:37.410Z,99.99
2023-03-11T06:45:37.446Z,99.99
2023-03-11T06:46:37.394Z,99.99
2023-03-11T06:47:37.451Z,99.99
2023-03-11T06:48:37.370Z,99.99
2023-03-11T06:49:37.367Z,99.99
2023-03-11T06:50:37.360Z,99.99
2023-03-11T06:51:37.378Z,99.99
2023-03-11T06:52:37.352Z,99.99
2023-03-11T06:53:37.343Z,99.99
2023-03-11T06:54:37.311Z,99.99
2023-03-11T06:55:37.314Z,99.99
2023-03-11T06:56:37.296Z,99.99
2023-03-11T06:57:37.305Z,99.99
2023-03-11T06:58:37.291Z,99.99
2023-03-11T06:59:37.268Z,99.99
2023-03-11T07:00:37.271Z,99.99
2023-03-11T07:01:37.257Z,99.99
2023-03-11T07:02:37.255Z,99.99
2023-03-11T07:03:37.277Z,99.99
2023-03-11T07:04:37.218Z,99.99
2023-03-11T07:05:37.213Z,99.99
2023-03-11T07:06:37.207Z,99.99
2023-03-11T07:07:37.347Z,99.99
2023-03-11T07:08:37.184Z,99.99
2023-03-11T07:09:37.171Z,99.99
2023-03-11T07:10:37.163Z,99.99
2023-03-11T07:11:37.156Z,99.99
2023-03-11T07:12:37.167Z,99.99
2023-03-11T07:13:37.143Z,99.99
2023-03-11T07:14:37.120Z,99.99
2023-03-11T07:15:37.112Z,99.99
2023-03-11T07:16:37.096Z,99.99
2023-03-11T07:17:37.121Z,99.99
2023-03-11T07:18:37.081Z,99.99
2023-03-11T07:19:37.077Z,99.99
2023-03-11T07:20:37.070Z,99.99
2023-03-11T07:21:37.057Z,99.99
2023-03-11T07:22:37.060Z,99.99
2023-03-11T07:23:37.040Z,99.99
2023-03-11T07:24:37.028Z,99.99
2023-03-11T07:25:37.014Z,99.99
2023-03-11T07:26:37.003Z,99.99
2023-03-11T07:27:37.030Z,99.99
2023-03-11T07:28:36.981Z,99.99
2023-03-11T07:29:36.979Z,99.99
2023-03-11T07:30:36.960Z,99.99
2023-03-11T07:31:37.054Z,99.99
2023-03-11T07:32:36.977Z,99.99
2023-03-11T07:33:36.931Z,99.99
2023-03-11T07:34:36.928Z,99.99
2023-03-11T07:35:36.937Z,99.99
2023-03-11T07:36:36.907Z,99.99
2023-03-11T07:37:36.904Z,99.99
2023-03-11T07:38:36.887Z,99.99
2023-03-11T07:39:36.876Z,99.99
2023-03-11T07:40:36.870Z,99.99
2023-03-11T07:41:36.853Z,99.99
2023-03-11T07:42:36.852Z,99.99
2023-03-11T07:43:36.948Z,99.99
2023-03-11T07:44:36.836Z,99.99
2023-03-11T07:45:36.813Z,99.99
2023-03-11T07:46:36.817Z,99.99
2023-03-11T07:47:36.801Z,99.99
2023-03-11T07:48:36.790Z,99.99
2023-03-11T07:49:36.770Z,99.99
2023-03-11T07:50:36.765Z,99.99
2023-03-11T07:51:36.757Z,99.99
2023-03-11T07:52:36.754Z,99.99
2023-03-11T07:53:36.748Z,99.99
2023-03-11T07:54:36.728Z,99.99
2023-03-11T07:55:36.716Z,99.99
2023-03-11T07:56:36.714Z,99.99
2023-03-11T07:57:36.729Z,99.99
2023-03-11T07:58:36.702Z,99.99
2023-03-11T07:59:36.671Z,99.99
2023-03-11T08:00:36.668Z,99.99
2023-03-11T08:01:36.860Z,99.99
2023-03-11T08:02:36.700Z,99.99
2023-03-11T08:03:36.648Z,99.99
2023-03-11T08:04:36.626Z,99.99
2023-03-11T08:05:36.611Z,99.99
2023-03-11T08:06:36.609Z,99.99
2023-03-11T08:07:36.589Z,99.99
2023-03-11T08:08:36.603Z,99.99
2023-03-11T08:09:36.570Z,99.99
2023-03-11T08:10:36.564Z,99.99
2023-03-11T08:11:36.557Z,99.99
2023-03-11T08:12:36.545Z,99.99
2023-03-11T08:13:36.606Z,99.99
2023-03-11T08:14:36.535Z,99.99
2023-03-11T08:15:36.523Z,99.99
2023-03-11T08:16:36.507Z,99.99
2023-03-11T08:17:36.490Z,99.99
2023-03-11T08:18:36.510Z,99.99
2023-03-11T08:19:36.477Z,99.99
2023-03-11T08:20:36.465Z,99.99
2023-03-11T08:21:36.453Z,99.99
2023-03-11T08:22:39.481Z,99.99
2023-03-11T08:23:36.447Z,99.99
2023-03-11T08:24:36.431Z,99.99
2023-03-11T08:25:36.429Z,99.99
2023-03-11T08:26:36.414Z,99.99
2023-03-11T08:27:36.391Z,99.99
2023-03-11T08:28:36.414Z,99.99
2023-03-11T08:29:36.407Z,99.99
2023-03-11T08:30:36.365Z,99.99
2023-03-11T08:31:36.466Z,99.99
2023-03-11T08:32:36.363Z,99.99
2023-03-11T08:33:36.360Z,99.99
2023-03-11T08:34:36.327Z,99.99
2023-03-11T08:35:36.365Z,99.99
2023-03-11T08:36:36.313Z,99.99
2023-03-11T08:37:36.287Z,99.99
2023-03-11T08:38:36.436Z,99.99
2023-03-11T08:39:36.275Z,99.99
2023-03-11T08:40:36.271Z,99.99
2023-03-11T08:41:36.258Z,99.99
2023-03-11T08:42:37.189Z,99.99
2023-03-11T08:43:36.251Z,99.99
2023-03-11T08:44:36.229Z,99.99
2023-03-11T08:45:36.210Z,99.99
2023-03-11T08:46:36.272Z,99.99
2023-03-11T08:47:36.196Z,99.99
2023-03-11T08:48:36.249Z,99.99
2023-03-11T08:49:36.201Z,99.99
2023-03-11T08:50:47.332Z,99.99
2023-03-11T08:51:36.172Z,99.99
2023-03-11T08:52:36.176Z,99.99
2023-03-11T08:53:36.213Z,99.99
2023-03-11T08:54:36.132Z,99.99
2023-03-11T08:55:36.118Z,99.99
2023-03-11T08:56:36.133Z,99.99
2023-03-11T08:57:36.100Z,99.99
2023-03-11T08:58:36.121Z,99.99
2023-03-11T08:59:36.091Z,99.99
2023-03-11T09:00:36.081Z,99.99
2023-03-11T09:01:36.082Z,99.99
2023-03-11T09:02:36.084Z,99.99
2023-03-11T09:03:36.081Z,99.99
2023-03-11T09:04:36.066Z,99.99
2023-03-11T09:05:36.036Z,99.99
2023-03-11T09:06:36.026Z,99.99
2023-03-11T09:07:36.010Z,99.99
2023-03-11T09:08:36.038Z,97.86
2023-03-11T09:09:35.993Z,94.96
2023-03-11T09:10:35.984Z,94.43
2023-03-11T09:11:35.959Z,95.78
2023-03-11T09:12:35.973Z,95.89
2023-03-11T09:13:35.972Z,95.57
2023-03-11T09:14:37.204Z,96.24
2023-03-11T09:15:35.937Z,96.24
2023-03-11T09:16:35.961Z,96.34
2023-03-11T09:17:35.903Z,95.21
2023-03-11T09:18:35.915Z,94.38
2023-03-11T09:19:35.899Z,94.28
2023-03-11T09:20:35.885Z,93.47
2023-03-11T09:21:35.861Z,91.27
2023-03-11T09:22:35.872Z,89.52
2023-03-11T09:23:35.868Z,88.34
2023-03-11T09:24:35.886Z,87.10
2023-03-11T09:25:35.836Z,86.75
2023-03-11T09:26:35.809Z,86.44
2023-03-11T09:27:35.816Z,86.13
2023-03-11T09:28:35.819Z,85.30
2023-03-11T09:29:35.800Z,86.02
2023-03-11T09:30:35.825Z,85.26
2023-03-11T09:31:35.767Z,85.32
2023-03-11T09:32:35.846Z,85.08
2023-03-11T09:33:35.766Z,83.36
2023-03-11T09:34:35.738Z,84.29
2023-03-11T09:35:35.808Z,85.28
2023-03-11T09:36:35.722Z,83.86
2023-03-11T09:37:35.718Z,82.93
2023-03-11T09:38:35.714Z,82.38
2023-03-11T09:39:35.687Z,82.79
2023-03-11T09:40:35.683Z,81.56
2023-03-11T09:41:44.960Z,82.24
2023-03-11T09:42:35.667Z,82.20
2023-03-11T09:43:35.666Z,79.48
2023-03-11T09:44:35.648Z,80.44
2023-03-11T09:45:35.631Z,79.00
2023-03-11T09:46:35.678Z,80.24
2023-03-11T09:47:35.624Z,81.07
2023-03-11T09:48:35.621Z,80.34
2023-03-11T09:49:35.600Z,80.34
2023-03-11T09:50:35.597Z,79.65
2023-03-11T09:51:35.568Z,78.83
2023-03-11T09:52:35.556Z,79.34
2023-03-11T09:53:35.566Z,76.56
2023-03-11T09:54:35.531Z,77.42
2023-03-11T09:55:35.512Z,78.52
2023-03-11T09:56:35.503Z,78.62
2023-03-11T09:57:35.498Z,79.10
2023-03-11T09:58:35.501Z,76.14
2023-03-11T09:59:35.486Z,76.86
2023-03-11T10:00:35.485Z,76.31
2023-03-11T10:01:35.480Z,74.22
2023-03-11T10:02:35.498Z,77.10
2023-03-11T10:03:36.833Z,73.64
2023-03-11T10:04:35.479Z,76.52
2023-03-11T10:05:35.463Z,75.52
2023-03-11T10:06:35.406Z,74.98
2023-03-11T10:07:35.387Z,72.24
2023-03-11T10:08:35.420Z,74.87
2023-03-11T10:09:36.575Z,73.54
2023-03-11T10:10:35.381Z,70.52
2023-03-11T10:11:35.353Z,72.61
2023-03-11T10:12:35.346Z,74.26
2023-03-11T10:13:35.339Z,75.25
2023-03-11T10:14:35.372Z,73.95
2023-03-11T10:15:36.363Z,73.13
2023-03-11T10:16:35.308Z,71.07
2023-03-11T10:17:35.350Z,75.29
2023-03-11T10:18:35.299Z,74.74
2023-03-11T10:19:35.278Z,73.50
2023-03-11T10:20:35.273Z,73.64
2023-03-11T10:21:35.238Z,73.06
2023-03-11T10:22:35.239Z,71.24
2023-03-11T10:23:35.274Z,72.03
2023-03-11T10:24:35.215Z,75.15
2023-03-11T10:25:35.216Z,73.91
2023-03-11T10:26:35.224Z,71.45
2023-03-11T10:27:35.176Z,72.92
2023-03-11T10:28:35.223Z,71.66
2023-03-11T10:29:35.161Z,72.17
2023-03-11T10:30:35.156Z,70.79
2023-03-11T10:31:35.163Z,72.58
2023-03-11T10:32:35.179Z,72.96
2023-03-11T10:33:35.160Z,73.64
2023-03-11T10:34:35.133Z,73.44
2023-03-11T10:35:35.146Z,74.22
2023-03-11T10:36:35.290Z,71.93
2023-03-11T10:37:48.279Z,73.16
2023-03-11T10:38:35.299Z,70.43
2023-03-11T10:39:35.052Z,69.82
2023-03-11T10:40:35.057Z,70.09
2023-03-11T10:41:35.034Z,70.36
2023-03-11T10:42:35.027Z,71.22
2023-03-11T10:43:35.472Z,69.82
2023-03-11T10:44:35.030Z,68.80
2023-03-11T10:45:35.007Z,68.90
2023-03-11T10:46:35.029Z,66.10
2023-03-11T10:47:34.968Z,69.78
2023-03-11T10:48:35.091Z,70.94
2023-03-11T10:49:34.967Z,68.25
2023-03-11T10:50:36.486Z,69.96
2023-03-11T10:51:34.936Z,68.29
2023-03-11T10:52:35.046Z,67.24
2023-03-11T10:53:34.918Z,67.85
2023-03-11T10:54:34.903Z,63.82
2023-03-11T10:55:34.885Z,64.90
2023-03-11T10:56:34.877Z,66.91
2023-03-11T10:57:34.873Z,74.26
2023-03-11T10:58:34.866Z,78.31
2023-03-11T10:59:34.851Z,79.46
2023-03-11T11:00:34.834Z,80.15
2023-03-11T11:01:35.544Z,83.25
2023-03-11T11:02:34.824Z,85.30
2023-03-11T11:03:34.833Z,86.41
2023-03-11T11:04:34.846Z,84.59
2023-03-11T11:05:34.785Z,81.80
2023-03-11T11:06:34.872Z,82.57
2023-03-11T11:07:34.770Z,85.58
2023-03-11T11:08:34.799Z,85.35
2023-03-11T11:09:35.818Z,84.84
2023-03-11T11:10:35.469Z,85.94
2023-03-11T11:11:34.748Z,78.31
2023-03-11T11:12:34.735Z,71.62
2023-03-11T11:13:34.890Z,69.56
2023-03-11T11:14:34.731Z,68.44
2023-03-11T11:15:34.731Z,70.76
2023-03-11T11:16:34.759Z,69.14
2023-03-11T11:17:34.663Z,78.63
2023-03-11T11:18:34.652Z,79.54
2023-03-11T11:19:34.660Z,85.73
2023-03-11T11:20:34.687Z,82.67
2023-03-11T11:21:34.636Z,87.01
2023-03-11T11:22:34.634Z,83.83
2023-03-11T11:23:34.655Z,76.28
2023-03-11T11:24:34.637Z,71.14
2023-03-11T11:25:34.664Z,71.18
2023-03-11T11:26:34.618Z,70.59
2023-03-11T11:27:34.607Z,76.01
2023-03-11T11:28:34.553Z,81.78
2023-03-11T11:29:35.428Z,86.45
2023-03-11T11:30:34.587Z,89.54
2023-03-11T11:31:34.573Z,85.22
2023-03-11T11:32:34.540Z,90.14
2023-03-11T11:33:34.498Z,85.62
2023-03-11T11:34:34.515Z,77.11
2023-03-11T11:35:34.510Z,79.01
2023-03-11T11:36:34.475Z,83.18
2023-03-11T11:37:34.455Z,81.20
2023-03-11T11:38:34.444Z,70.70
2023-03-11T11:39:34.449Z,66.16
2023-03-11T11:40:34.438Z,64.50
2023-03-11T11:41:34.410Z,64.51
2023-03-11T11:42:34.408Z,62.74
2023-03-11T11:43:34.396Z,62.48
2023-03-11T11:44:34.409Z,60.41
2023-03-11T11:45:34.407Z,60.49
2023-03-11T11:46:34.419Z,61.35
2023-03-11T11:47:34.356Z,62.83
2023-03-11T11:48:34.340Z,65.04
2023-03-11T11:49:34.376Z,63.18
2023-03-11T11:50:34.315Z,54.16
2023-03-11T11:51:34.317Z,64.11
2023-03-11T11:52:34.322Z,60.17
2023-03-11T11:53:34.314Z,60.76
2023-03-11T11:54:34.321Z,58.64
2023-03-11T11:55:34.270Z,62.71
2023-03-11T11:56:34.248Z,65.37
2023-03-11T11:57:34.244Z,61.71
2023-03-11T11:58:34.233Z,58.26
2023-03-11T11:59:34.260Z,60.39
2023-03-11T12:00:34.225Z,55.94
2023-03-11T12:01:34.199Z,63.18
2023-03-11T12:02:34.196Z,64.07
2023-03-11T12:03:34.324Z,61.24
2023-03-11T12:04:34.321Z,57.92
2023-03-11T12:05:34.242Z,68.41
2023-03-11T12:06:34.230Z,70.21
2023-03-11T12:07:34.245Z,73.30
2023-03-11T12:08:34.180Z,72.64
2023-03-11T12:09:34.138Z,72.99
2023-03-11T12:10:34.185Z,68.49
2023-03-11T12:11:34.273Z,64.78
2023-03-11T12:12:34.173Z,73.88
2023-03-11T12:13:34.087Z,77.50
2023-03-11T12:14:34.136Z,77.26
2023-03-11T12:15:34.230Z,81.05
2023-03-11T12:16:34.039Z,83.65
2023-03-11T12:17:34.178Z,69.32
2023-03-11T12:18:34.040Z,62.98
2023-03-11T12:19:34.026Z,65.04
2023-03-11T12:20:33.998Z,65.50
2023-03-11T12:21:34.060Z,68.53
2023-03-11T12:22:33.979Z,69.79
2023-03-11T12:23:34.114Z,74.50
2023-03-11T12:24:33.968Z,77.91
2023-03-11T12:25:33.952Z,75.09
2023-03-11T12:26:33.934Z,75.88
2023-03-11T12:27:33.931Z,80.54
2023-03-11T12:28:33.951Z,85.73
2023-03-11T12:29:33.930Z,83.01
2023-03-11T12:30:33.900Z,85.95
2023-03-11T12:31:33.927Z,87.19
2023-03-11T12:32:33.944Z,82.77
2023-03-11T12:33:33.880Z,85.26
2023-03-11T12:34:33.887Z,85.47
2023-03-11T12:35:33.951Z,82.67
2023-03-11T12:36:33.841Z,80.64
2023-03-11T12:37:33.837Z,78.92
2023-03-11T12:38:33.822Z,78.51
2023-03-11T12:39:33.880Z,84.81
2023-03-11T12:40:33.813Z,78.72
2023-03-11T12:41:33.805Z,81.56
2023-03-11T12:42:33.773Z,86.55
2023-03-11T12:43:33.860Z,82.29
2023-03-11T12:44:33.765Z,83.99
2023-03-11T12:45:33.752Z,84.78
2023-03-11T12:46:33.762Z,77.47
2023-03-11T12:47:35.691Z,76.84
2023-03-11T12:48:33.729Z,70.57
2023-03-11T12:49:33.764Z,65.42
2023-03-11T12:50:33.688Z,71.41
2023-03-11T12:51:33.746Z,76.43
2023-03-11T12:52:33.676Z,78.08